Time;durP1;ratioP1;P1;durP2;ratioP2;P2;SDS_P1;SDS_P2;PMS_P1;PMS_P2;Temp;Humidity;BMP_temperature;BMP_pressure;BME280_temperature;BME280_humidity;BME280_pressure;Samples;Min_cycle;Max_cycle;Signal;HPM_P1;HPM_P2
2023/03/13 00:01:20;;;;;;;13.68;12.77;;;;;;;;;;4999232;28;20550;-57
2023/03/13 00:03:46;;;;;;;14.63;13.77;;;;;;;;;;4997812;28;20193;-57
2023/03/13 00:06:12;;;;;;;14.73;13.80;;;;;;;;;;4998629;28;20125;-57
2023/03/13 00:08:38;;;;;;;14.68;13.77;;;;;;;;;;4997169;28;20511;-59
2023/03/13 00:11:08;;;;;;;14.63;13.68;;;;;;;;;;4996148;28;20046;-57
2023/03/13 00:13:34;;;;;;;13.13;12.32;;;;;;;;;;4997853;28;20041;-57
2023/03/13 00:16:05;;;;;;;13.90;13.00;;;;;;;;;;4994030;28;20379;-57
2023/03/13 00:18:31;;;;;;;14.70;13.68;;;;;;;;;;4992474;28;20030;-57
2023/03/13 00:21:00;;;;;;;15.68;14.55;;;;;;;;;;4995321;28;20718;-57
2023/03/13 00:23:26;;;;;;;13.65;12.85;;;;;;;;;;4993651;28;20045;-56
2023/03/13 00:25:59;;;;;;;15.45;14.55;;;;;;;;;;4994587;28;20060;-57
2023/03/13 00:28:27;;;;;;;13.70;12.90;;;;;;;;;;4994158;28;20102;-57
2023/03/13 00:31:09;;;;;;;13.27;12.48;;;;;;;;;;4997589;28;20176;-58
2023/03/13 00:33:37;;;;;;;14.30;13.50;;;;;;;;;;4991746;28;20279;-58
2023/03/13 00:36:27;;;;;;;13.90;13.05;;;;;;;;;;5004464;28;20045;-57
2023/03/13 00:38:55;;;;;;;13.20;12.40;;;;;;;;;;4998737;28;20088;-58
2023/03/13 00:41:22;;;;;;;12.98;12.20;;;;;;;;;;4996180;28;20053;-59
2023/03/13 00:43:48;;;;;;;12.70;11.98;;;;;;;;;;4996219;28;20030;-58
2023/03/13 00:46:16;;;;;;;13.98;13.13;;;;;;;;;;4995788;28;20045;-57
2023/03/13 00:48:41;;;;;;;15.38;14.38;;;;;;;;;;4994861;28;20076;-58
2023/03/13 00:51:07;;;;;;;12.98;12.07;;;;;;;;;;4996352;28;20435;-58
2023/03/13 00:53:33;;;;;;;13.95;13.15;;;;;;;;;;4994564;28;20034;-58
2023/03/13 00:56:00;;;;;;;13.45;12.43;;;;;;;;;;4992349;28;20053;-58
2023/03/13 00:58:28;;;;;;;13.48;12.68;;;;;;;;;;4998701;28;20055;-57
2023/03/13 01:00:53;;;;;;;13.30;12.50;;;;;;;;;;4994241;28;20052;-57
2023/03/13 01:03:20;;;;;;;13.65;12.85;;;;;;;;;;5003005;28;20041;-58
2023/03/13 01:05:58;;;;;;;14.15;13.32;;;;;;;;;;4994573;28;20474;-58
2023/03/13 01:08:23;;;;;;;13.55;12.50;;;;;;;;;;4992034;28;20030;-57
2023/03/13 01:10:49;;;;;;;13.05;12.25;;;;;;;;;;5001087;28;20051;-57
2023/03/13 01:13:15;;;;;;;14.57;13.55;;;;;;;;;;4997825;28;20084;-58
2023/03/13 01:15:40;;;;;;;14.68;13.43;;;;;;;;;;4999272;28;20522;-58
2023/03/13 01:18:05;;;;;;;13.13;12.32;;;;;;;;;;4995192;28;20356;-59
2023/03/13 01:20:31;;;;;;;15.95;14.55;;;;;;;;;;4993827;28;20932;-58
2023/03/13 01:22:56;;;;;;;14.27;13.45;;;;;;;;;;4996235;28;20116;-58
2023/03/13 01:25:21;;;;;;;13.05;12.25;;;;;;;;;;4991564;28;20122;-57
2023/03/13 01:27:47;;;;;;;13.48;12.68;;;;;;;;;;4993685;28;20038;-58
2023/03/13 01:30:12;;;;;;;12.77;11.90;;;;;;;;;;4993853;28;20049;-58
2023/03/13 01:32:38;;;;;;;12.50;11.50;;;;;;;;;;4993862;28;20046;-58
2023/03/13 01:35:04;;;;;;;13.68;12.75;;;;;;;;;;4993860;28;20108;-58
2023/03/13 01:37:29;;;;;;;13.07;12.18;;;;;;;;;;4995964;28;20697;-57
2023/03/13 01:39:55;;;;;;;12.43;11.55;;;;;;;;;;4995553;28;20526;-57
2023/03/13 01:42:20;;;;;;;13.23;12.32;;;;;;;;;;4995863;28;20405;-58
2023/03/13 01:44:51;;;;;;;12.20;11.50;;;;;;;;;;4995868;28;20503;-57
2023/03/13 01:47:16;;;;;;;13.00;12.20;;;;;;;;;;5002963;28;20629;-57
2023/03/13 01:49:43;;;;;;;13.60;12.50;;;;;;;;;;4992610;28;20034;-60
2023/03/13 01:52:14;;;;;;;13.38;12.35;;;;;;;;;;4994278;28;20038;-58
2023/03/13 01:54:50;;;;;;;;;;;;;;;;;;4999650;28;20034;-58
2023/03/13 01:57:23;;;;;;;13.18;12.38;;;;;;;;;;4989013;28;19917;-58
2023/03/13 01:59:54;;;;;;;12.73;11.98;;;;;;;;;;4994045;28;20041;-58
2023/03/13 02:02:21;;;;;;;14.60;13.18;;;;;;;;;;4996211;28;20033;-57
2023/03/13 02:04:52;;;;;;;13.32;12.50;;;;;;;;;;4994223;28;20128;-58
2023/03/13 02:07:25;;;;;;;12.95;12.00;;;;;;;;;;4996989;28;20096;-57
2023/03/13 02:09:53;;;;;;;13.18;12.38;;;;;;;;;;4994733;28;20049;-58
2023/03/13 02:12:38;;;;;;;13.10;12.30;;;;;;;;;;4994586;28;20416;-57
2023/03/13 02:15:13;;;;;;;12.63;11.65;;;;;;;;;;4993195;28;20042;-57
2023/03/13 02:17:40;;;;;;;12.13;11.43;;;;;;;;;;4993490;28;20048;-57
2023/03/13 02:20:06;;;;;;;12.48;11.77;;;;;;;;;;4992402;28;20030;-57
2023/03/13 02:23:05;;;;;;;12.40;11.70;;;;;;;;;;4993681;28;20121;-57
2023/03/13 02:25:52;;;;;;;12.02;11.32;;;;;;;;;;4994116;28;20030;-57
2023/03/13 02:28:28;;;;;;;12.48;11.45;;;;;;;;;;5001308;28;20061;-58
2023/03/13 02:30:57;;;;;;;14.18;13.38;;;;;;;;;;5013682;28;20057;-57
2023/03/13 02:33:26;;;;;;;12.07;11.38;;;;;;;;;;4994495;28;20042;-56
2023/03/13 02:35:52;;;;;;;13.70;12.90;;;;;;;;;;4997062;28;20038;-57
2023/03/13 02:38:23;;;;;;;12.73;11.95;;;;;;;;;;4991625;28;20605;-56
2023/03/13 02:40:50;;;;;;;11.95;11.25;;;;;;;;;;4995635;28;20038;-56
2023/03/13 02:43:23;;;;;;;12.85;12.15;;;;;;;;;;4997055;28;20088;-56
2023/03/13 02:46:15;;;;;;;13.80;12.98;;;;;;;;;;4994380;28;20048;-56
2023/03/13 02:48:43;;;;;;;13.70;12.90;;;;;;;;;;4996156;28;20038;-55
2023/03/13 02:51:39;;;;;;;13.52;12.68;;;;;;;;;;4992546;28;20038;-56
2023/03/13 02:54:10;;;;;;;14.25;13.43;;;;;;;;;;4993376;28;20688;-56
2023/03/13 02:56:40;;;;;;;12.55;11.75;;;;;;;;;;4992228;28;20038;-55
2023/03/13 02:59:06;;;;;;;12.75;11.95;;;;;;;;;;4996043;28;20494;-55
2023/03/13 03:01:31;;;;;;;12.32;11.63;;;;;;;;;;4993165;28;20092;-55
2023/03/13 03:03:57;;;;;;;11.98;11.27;;;;;;;;;;4990771;28;20364;-54
2023/03/13 03:06:22;;;;;;;13.23;12.38;;;;;;;;;;4993451;28;20038;-54
2023/03/13 03:08:48;;;;;;;13.13;12.32;;;;;;;;;;4993197;28;20065;-55
2023/03/13 03:11:13;;;;;;;12.30;11.50;;;;;;;;;;4991939;28;20042;-53
2023/03/13 03:13:38;;;;;;;13.13;12.15;;;;;;;;;;4993472;28;20341;-55
2023/03/13 03:16:06;;;;;;;11.40;10.70;;;;;;;;;;4995444;28;20145;-54
2023/03/13 03:18:31;;;;;;;12.60;11.80;;;;;;;;;;4995099;28;20409;-55
2023/03/13 03:20:56;;;;;;;12.13;11.43;;;;;;;;;;4994256;28;20099;-55
2023/03/13 03:23:22;;;;;;;13.20;12.30;;;;;;;;;;4994372;28;20511;-54
2023/03/13 03:25:47;;;;;;;13.38;12.57;;;;;;;;;;4997493;28;20096;-55
2023/03/13 03:28:12;;;;;;;13.85;13.00;;;;;;;;;;4994043;28;20124;-55
2023/03/13 03:30:38;;;;;;;12.80;12.00;;;;;;;;;;4994936;28;20030;-52
2023/03/13 03:33:03;;;;;;;11.90;11.20;;;;;;;;;;4998769;28;20087;-54
2023/03/13 03:35:29;;;;;;;12.00;11.20;;;;;;;;;;4991676;28;20030;-54
2023/03/13 03:37:54;;;;;;;12.40;11.60;;;;;;;;;;4995233;28;20041;-52
2023/03/13 03:40:20;;;;;;;13.02;12.13;;;;;;;;;;4994382;28;20117;-50
2023/03/13 03:42:46;;;;;;;12.15;11.45;;;;;;;;;;4994337;28;20064;-51
2023/03/13 03:45:11;;;;;;;13.00;12.15;;;;;;;;;;4992671;28;20033;-54
2023/03/13 03:47:37;;;;;;;13.45;12.52;;;;;;;;;;4994652;28;20384;-51
2023/03/13 03:50:03;;;;;;;13.07;12.27;;;;;;;;;;4995256;28;20169;-53
2023/03/13 03:52:28;;;;;;;12.18;11.48;;;;;;;;;;4995411;28;20476;-53
2023/03/13 03:54:54;;;;;;;12.70;11.95;;;;;;;;;;4995501;28;20045;-49
2023/03/13 03:57:19;;;;;;;12.95;12.15;;;;;;;;;;4993127;28;20056;-51
2023/03/13 03:59:44;;;;;;;13.00;12.23;;;;;;;;;;4991161;28;20026;-54
2023/03/13 04:02:10;;;;;;;13.05;12.20;;;;;;;;;;4994857;28;20460;-51
2023/03/13 04:04:35;;;;;;;12.93;12.13;;;;;;;;;;4991690;28;20563;-54
2023/03/13 04:07:01;;;;;;;13.45;12.65;;;;;;;;;;4990232;28;20473;-54
2023/03/13 04:09:26;;;;;;;13.35;12.55;;;;;;;;;;4995657;28;20034;-53
2023/03/13 04:11:52;;;;;;;13.25;12.45;;;;;;;;;;4992944;28;20041;-55
2023/03/13 04:14:17;;;;;;;13.93;13.13;;;;;;;;;;4992725;28;20052;-53
2023/03/13 04:16:42;;;;;;;14.10;13.20;;;;;;;;;;4994572;28;20048;-54
2023/03/13 04:19:08;;;;;;;14.45;13.65;;;;;;;;;;4991834;28;20042;-51
2023/03/13 04:21:33;;;;;;;13.88;12.98;;;;;;;;;;4993140;28;20053;-55
2023/03/13 04:23:58;;;;;;;13.60;12.70;;;;;;;;;;4991031;28;20093;-54
2023/03/13 04:26:24;;;;;;;14.18;13.15;;;;;;;;;;5001495;28;20033;-55
2023/03/13 04:28:49;;;;;;;14.50;13.65;;;;;;;;;;5007464;28;20026;-54
2023/03/13 04:31:14;;;;;;;13.50;12.70;;;;;;;;;;4992951;28;20066;-55
2023/03/13 04:33:40;;;;;;;13.52;12.73;;;;;;;;;;4996259;28;20416;-54
2023/03/13 04:36:06;;;;;;;13.55;12.75;;;;;;;;;;4991048;28;20034;-55
2023/03/13 04:38:31;;;;;;;13.70;12.90;;;;;;;;;;4993813;28;21818;-55
2023/03/13 04:40:56;;;;;;;14.38;13.57;;;;;;;;;;4995383;28;20068;-55
2023/03/13 04:43:22;;;;;;;15.50;14.60;;;;;;;;;;5001132;28;20041;-55
2023/03/13 04:45:48;;;;;;;13.70;12.90;;;;;;;;;;4997698;28;20033;-55
2023/03/13 04:48:14;;;;;;;14.57;13.77;;;;;;;;;;4997909;28;20376;-56
2023/03/13 04:50:39;;;;;;;14.60;13.68;;;;;;;;;;4996419;28;20034;-55
2023/03/13 04:53:05;;;;;;;14.45;13.65;;;;;;;;;;4999465;28;20040;-55
2023/03/13 04:55:30;;;;;;;14.20;13.27;;;;;;;;;;5004764;28;20038;-56
2023/03/13 04:57:55;;;;;;;14.50;13.70;;;;;;;;;;4994790;28;20041;-56
2023/03/13 05:00:21;;;;;;;14.68;13.77;;;;;;;;;;4997685;28;20372;-56
2023/03/13 05:02:46;;;;;;;13.73;12.93;;;;;;;;;;5000835;28;20038;-56
2023/03/13 05:05:12;;;;;;;13.73;12.93;;;;;;;;;;4995906;28;20117;-56
2023/03/13 05:07:37;;;;;;;14.15;13.35;;;;;;;;;;4998163;28;20943;-56
2023/03/13 05:10:03;;;;;;;14.07;13.23;;;;;;;;;;4995386;28;20046;-56
2023/03/13 05:12:28;;;;;;;14.68;13.88;;;;;;;;;;4998241;28;20042;-56
2023/03/13 05:14:54;;;;;;;14.90;14.10;;;;;;;;;;4995896;28;20026;-56
2023/03/13 05:17:19;;;;;;;14.07;13.07;;;;;;;;;;4995009;28;20778;-56
2023/03/13 05:19:45;;;;;;;12.43;11.73;;;;;;;;;;4993393;28;20038;-56
2023/03/13 05:22:10;;;;;;;14.25;13.45;;;;;;;;;;4995184;28;20061;-56
2023/03/13 05:24:35;;;;;;;14.00;13.10;;;;;;;;;;4993814;28;20048;-56
2023/03/13 05:27:01;;;;;;;13.43;12.63;;;;;;;;;;4993838;28;20030;-56
2023/03/13 05:29:26;;;;;;;14.60;13.70;;;;;;;;;;4993586;28;20041;-49
2023/03/13 05:31:52;;;;;;;13.27;12.48;;;;;;;;;;4993625;28;20045;-51
2023/03/13 05:34:17;;;;;;;13.07;12.27;;;;;;;;;;4995365;28;20049;-51
2023/03/13 05:36:42;;;;;;;13.55;12.75;;;;;;;;;;4995534;28;20124;-49
2023/03/13 05:39:08;;;;;;;12.80;12.05;;;;;;;;;;4994412;28;20133;-53
2023/03/13 05:41:33;;;;;;;12.88;12.15;;;;;;;;;;4993193;28;20609;-49
2023/03/13 05:43:59;;;;;;;12.32;11.63;;;;;;;;;;4996410;28;20030;-50
2023/03/13 05:46:24;;;;;;;14.00;13.10;;;;;;;;;;4994847;28;20042;-50
2023/03/13 05:48:49;;;;;;;14.00;13.20;;;;;;;;;;4994303;28;20046;-51
2023/03/13 05:51:15;;;;;;;12.10;11.40;;;;;;;;;;4991007;28;20030;-47
2023/03/13 05:53:40;;;;;;;11.95;11.25;;;;;;;;;;4996547;28;20112;-48
2023/03/13 05:56:06;;;;;;;12.10;11.40;;;;;;;;;;5000732;28;20053;-49
2023/03/13 05:58:31;;;;;;;13.45;12.65;;;;;;;;;;4996616;28;20033;-52
2023/03/13 06:00:57;;;;;;;12.57;11.88;;;;;;;;;;4997365;28;20044;-51
2023/03/13 06:03:22;;;;;;;13.13;12.25;;;;;;;;;;4996824;28;20038;-52
2023/03/13 06:05:47;;;;;;;11.75;11.05;;;;;;;;;;4992772;28;20044;-50
2023/03/13 06:08:13;;;;;;;13.23;12.43;;;;;;;;;;4993386;28;20053;-51
2023/03/13 06:10:38;;;;;;;12.20;11.50;;;;;;;;;;4994160;28;20022;-51
2023/03/13 06:13:03;;;;;;;12.55;11.85;;;;;;;;;;4991874;28;20041;-52
2023/03/13 06:15:29;;;;;;;12.35;11.65;;;;;;;;;;4995668;28;20667;-52
2023/03/13 06:17:54;;;;;;;12.95;12.15;;;;;;;;;;4993963;28;20117;-53
2023/03/13 06:20:21;;;;;;;14.05;13.18;;;;;;;;;;4996760;28;20456;-51
2023/03/13 06:22:46;;;;;;;12.73;11.93;;;;;;;;;;4997186;28;20095;-49
2023/03/13 06:25:12;;;;;;;11.70;11.00;;;;;;;;;;4995714;28;20041;-52
2023/03/13 06:27:37;;;;;;;13.15;12.38;;;;;;;;;;4996461;28;20114;-53
2023/03/13 06:30:03;;;;;;;12.73;11.95;;;;;;;;;;4995368;28;20046;-51
2023/03/13 06:32:28;;;;;;;13.73;12.93;;;;;;;;;;4993931;28;20077;-50
2023/03/13 06:34:53;;;;;;;12.77;12.05;;;;;;;;;;4996008;28;20088;-50
2023/03/13 06:37:19;;;;;;;11.90;11.20;;;;;;;;;;4992176;28;20064;-55
2023/03/13 06:39:44;;;;;;;11.52;10.82;;;;;;;;;;4992347;28;20030;-58
2023/03/13 06:42:10;;;;;;;12.60;11.90;;;;;;;;;;4994037;28;20117;-58
2023/03/13 06:44:35;;;;;;;12.85;12.05;;;;;;;;;;4995863;28;20659;-58
2023/03/13 06:47:00;;;;;;;13.48;12.68;;;;;;;;;;4991269;28;20117;-58
2023/03/13 06:49:26;;;;;;;13.25;12.45;;;;;;;;;;4995072;28;20125;-57
2023/03/13 06:51:51;;;;;;;12.40;11.70;;;;;;;;;;5002885;28;20038;-57
2023/03/13 06:54:16;;;;;;;13.57;12.77;;;;;;;;;;4994392;28;20093;-57
2023/03/13 06:56:42;;;;;;;12.50;11.80;;;;;;;;;;4989515;28;20046;-56
2023/03/13 06:59:07;;;;;;;11.77;11.07;;;;;;;;;;4992317;28;20038;-56
2023/03/13 07:01:33;;;;;;;12.55;11.82;;;;;;;;;;4991688;28;20053;-58
2023/03/13 07:03:58;;;;;;;12.60;11.80;;;;;;;;;;5000129;28;20034;-57
2023/03/13 07:06:23;;;;;;;12.23;11.52;;;;;;;;;;4993833;28;20026;-57
2023/03/13 07:08:49;;;;;;;13.00;12.20;;;;;;;;;;4997587;28;20722;-56
2023/03/13 07:11:15;;;;;;;12.20;11.50;;;;;;;;;;4994256;28;20477;-58
2023/03/13 07:13:40;;;;;;;11.70;11.00;;;;;;;;;;4995030;28;20034;-58
2023/03/13 07:16:11;;;;;;;12.02;11.32;;;;;;;;;;4993416;28;20042;-58
2023/03/13 07:18:37;;;;;;;11.85;11.15;;;;;;;;;;4996751;28;20147;-54
2023/03/13 07:21:04;;;;;;;13.23;12.43;;;;;;;;;;4994912;28;20038;-58
2023/03/13 07:23:30;;;;;;;11.88;11.18;;;;;;;;;;4993823;28;20034;-58
2023/03/13 07:25:58;;;;;;;12.13;11.43;;;;;;;;;;4994881;28;20030;-57
2023/03/13 07:28:24;;;;;;;12.90;12.05;;;;;;;;;;4995629;28;20038;-57
2023/03/13 07:30:50;;;;;;;12.57;11.82;;;;;;;;;;4995203;28;20384;-57
2023/03/13 07:33:16;;;;;;;11.75;11.05;;;;;;;;;;4993917;28;20048;-57
2023/03/13 07:35:48;;;;;;;12.50;11.75;;;;;;;;;;4997283;28;20033;-58
2023/03/13 07:38:13;;;;;;;13.98;13.18;;;;;;;;;;4992214;28;20531;-57
2023/03/13 07:40:39;;;;;;;12.85;12.05;;;;;;;;;;5011218;28;20041;-58
2023/03/13 07:43:04;;;;;;;13.15;12.35;;;;;;;;;;4998455;28;20089;-58
2023/03/13 07:45:29;;;;;;;13.68;12.88;;;;;;;;;;4989574;28;20511;-58
2023/03/13 07:47:55;;;;;;;13.82;13.02;;;;;;;;;;4992078;28;20026;-57
2023/03/13 07:50:20;;;;;;;13.18;12.38;;;;;;;;;;4992641;28;20058;-57
2023/03/13 07:52:45;;;;;;;13.77;12.98;;;;;;;;;;4991479;28;20096;-56
2023/03/13 07:55:11;;;;;;;14.07;13.27;;;;;;;;;;4991718;28;20029;-58
2023/03/13 07:57:36;;;;;;;13.43;12.57;;;;;;;;;;4991768;28;20034;-57
2023/03/13 08:00:03;;;;;;;14.00;13.20;;;;;;;;;;4995257;28;20087;-58
2023/03/13 08:02:28;;;;;;;13.05;12.30;;;;;;;;;;4994853;28;20041;-58
2023/03/13 08:04:54;;;;;;;13.55;12.75;;;;;;;;;;4995827;28;20038;-58
2023/03/13 08:07:19;;;;;;;14.43;13.63;;;;;;;;;;4990256;28;20037;-59
2023/03/13 08:09:45;;;;;;;14.38;13.57;;;;;;;;;;4994361;28;20240;-57
2023/03/13 08:12:10;;;;;;;14.88;14.07;;;;;;;;;;4992772;28;20340;-58
2023/03/13 08:14:35;;;;;;;16.58;15.68;;;;;;;;;;4991660;28;20034;-57
2023/03/13 08:17:01;;;;;;;17.20;16.23;;;;;;;;;;4998139;28;20049;-59
2023/03/13 08:19:26;;;;;;;18.38;17.27;;;;;;;;;;4997345;28;20041;-58
2023/03/13 08:21:51;;;;;;;20.67;19.58;;;;;;;;;;4992936;28;20077;-58
2023/03/13 08:24:17;;;;;;;23.33;21.80;;;;;;;;;;5001052;28;20045;-58
2023/03/13 08:26:42;;;;;;;23.55;22.27;;;;;;;;;;4994400;28;20502;-57
2023/03/13 08:29:10;;;;;;;23.95;22.67;;;;;;;;;;4994163;28;20546;-57
2023/03/13 08:31:42;;;;;;;26.13;24.73;;;;;;;;;;4995170;28;20080;-56
2023/03/13 08:34:07;;;;;;;25.90;24.52;;;;;;;;;;4994803;28;20522;-58
2023/03/13 08:36:35;;;;;;;26.10;24.70;;;;;;;;;;4996546;28;20030;-53
2023/03/13 08:39:04;;;;;;;28.45;26.95;;;;;;;;;;4999593;28;20026;-51
2023/03/13 08:41:33;;;;;;;27.23;25.75;;;;;;;;;;4995918;28;21549;-50
2023/03/13 08:43:59;;;;;;;26.23;24.88;;;;;;;;;;4995484;28;20049;-53
2023/03/13 08:46:24;;;;;;;28.20;26.73;;;;;;;;;;4993507;28;20881;-59
2023/03/13 08:48:51;;;;;;;26.80;25.40;;;;;;;;;;4990456;28;20040;-58
2023/03/13 08:51:18;;;;;;;29.63;28.05;;;;;;;;;;4992370;28;20038;-58
2023/03/13 08:53:44;;;;;;;26.45;25.05;;;;;;;;;;4994867;28;20048;-58
2023/03/13 08:56:12;;;;;;;29.17;27.63;;;;;;;;;;4993081;28;20038;-58
2023/03/13 08:58:37;;;;;;;28.50;27.00;;;;;;;;;;4993461;28;20053;-53
2023/03/13 09:01:06;;;;;;;30.35;28.75;;;;;;;;;;4997476;28;20038;-53
2023/03/13 09:03:31;;;;;;;30.63;29.05;;;;;;;;;;4995455;28;20026;-58
2023/03/13 09:05:58;;;;;;;32.22;30.55;;;;;;;;;;4995064;28;20045;-57
2023/03/13 09:08:24;;;;;;;29.40;27.88;;;;;;;;;;4996485;28;20041;-52
2023/03/13 09:11:00;;;;;;;30.90;29.27;;;;;;;;;;4993347;28;20030;-53
2023/03/13 09:13:27;;;;;;;29.38;27.85;;;;;;;;;;4996040;28;20025;-51
2023/03/13 09:15:57;;;;;;;30.60;28.85;;;;;;;;;;4996397;28;20038;-53
2023/03/13 09:18:23;;;;;;;28.50;27.00;;;;;;;;;;4993626;28;20034;-51
2023/03/13 09:20:48;;;;;;;30.65;28.75;;;;;;;;;;4997593;28;20457;-51
2023/03/13 09:23:14;;;;;;;30.45;28.83;;;;;;;;;;4996384;28;20057;-53
2023/03/13 09:25:39;;;;;;;30.52;28.88;;;;;;;;;;4997670;28;20037;-53
2023/03/13 09:28:04;;;;;;;31.15;29.52;;;;;;;;;;4991372;28;20460;-52
2023/03/13 09:30:30;;;;;;;32.28;30.58;;;;;;;;;;4994989;28;20127;-51
2023/03/13 09:32:55;;;;;;;32.08;30.42;;;;;;;;;;4995294;28;20444;-50
2023/03/13 09:35:20;;;;;;;26.92;25.50;;;;;;;;;;4996319;28;20033;-50
2023/03/13 09:37:46;;;;;;;29.13;27.63;;;;;;;;;;4993570;28;20416;-52
2023/03/13 09:40:19;;;;;;;30.75;29.15;;;;;;;;;;4992835;28;20089;-51
2023/03/13 09:42:51;;;;;;;29.60;28.05;;;;;;;;;;4994884;28;20065;-53
2023/03/13 09:45:32;;;;;;;27.63;26.10;;;;;;;;;;4996509;28;20096;-53
2023/03/13 09:48:17;;;;;;;27.20;25.70;;;;;;;;;;4995707;28;20515;-53
2023/03/13 09:50:59;;;;;;;27.05;25.60;;;;;;;;;;4995135;28;20112;-53
2023/03/13 09:53:33;;;;;;;27.25;25.75;;;;;;;;;;4994409;28;20053;-53
2023/03/13 09:55:59;;;;;;;24.55;23.25;;;;;;;;;;4995534;28;20034;-54
2023/03/13 09:58:29;;;;;;;25.35;23.95;;;;;;;;;;4997154;28;20065;-51
2023/03/13 10:01:01;;;;;;;22.52;21.33;;;;;;;;;;4995235;28;20165;-50
2023/03/13 10:03:30;;;;;;;21.92;20.73;;;;;;;;;;4997638;28;20038;-50
2023/03/13 10:05:59;;;;;;;18.88;17.77;;;;;;;;;;4994529;28;20038;-52
2023/03/13 10:08:27;;;;;;;18.30;17.30;;;;;;;;;;4994219;28;20030;-57
2023/03/13 10:11:10;;;;;;;18.08;17.08;;;;;;;;;;4993372;28;20041;-58
2023/03/13 10:13:44;;;;;;;15.75;14.85;;;;;;;;;;4994591;28;20038;-59
2023/03/13 10:16:25;;;;;;;15.48;14.57;;;;;;;;;;4996135;28;20042;-59
2023/03/13 10:19:10;;;;;;;15.77;14.82;;;;;;;;;;4996113;28;20453;-60
2023/03/13 10:21:37;;;;;;;13.77;12.98;;;;;;;;;;4994229;28;20037;-59
2023/03/13 10:24:12;;;;;;;15.07;14.18;;;;;;;;;;4994124;28;20049;-58
2023/03/13 10:26:37;;;;;;;13.70;12.90;;;;;;;;;;4988997;28;20042;-59
2023/03/13 10:29:30;;;;;;;13.38;12.57;;;;;;;;;;4991813;28;20053;-59
2023/03/13 10:32:04;;;;;;;13.77;12.98;;;;;;;;;;4991592;28;20150;-59
2023/03/13 10:34:43;;;;;;;14.07;13.27;;;;;;;;;;4994099;28;20129;-58
2023/03/13 10:37:13;;;;;;;13.82;13.02;;;;;;;;;;5012509;28;20039;-58
2023/03/13 10:39:38;;;;;;;16.13;14.85;;;;;;;;;;4991659;28;20138;-58
2023/03/13 10:42:19;;;;;;;14.30;13.40;;;;;;;;;;4998030;28;20112;-59
2023/03/13 10:44:45;;;;;;;15.25;14.40;;;;;;;;;;4992762;28;20034;-59
2023/03/13 10:47:12;;;;;;;18.05;16.95;;;;;;;;;;4997438;28;20048;-59
2023/03/13 10:49:47;;;;;;;17.95;16.95;;;;;;;;;;4995124;28;20475;-58
2023/03/13 10:52:29;;;;;;;17.33;16.33;;;;;;;;;;4995859;28;20175;-59
2023/03/13 10:55:20;;;;;;;20.45;19.35;;;;;;;;;;4996294;28;20037;-59
2023/03/13 10:58:00;;;;;;;19.90;18.80;;;;;;;;;;4993630;28;20038;-59
2023/03/13 11:00:33;;;;;;;23.15;21.95;;;;;;;;;;4991770;28;20096;-59
2023/03/13 11:03:01;;;;;;;23.92;22.63;;;;;;;;;;4994729;28;20092;-59
2023/03/13 11:05:52;;;;;;;24.67;23.38;;;;;;;;;;4996852;28;20030;-58
2023/03/13 11:08:21;;;;;;;22.65;21.45;;;;;;;;;;5006977;28;20441;-59
2023/03/13 11:10:55;;;;;;;21.90;20.70;;;;;;;;;;4995083;28;20117;-59
2023/03/13 11:13:44;;;;;;;21.70;20.50;;;;;;;;;;4993217;28;20113;-59
2023/03/13 11:16:21;;;;;;;23.60;22.30;;;;;;;;;;4993376;28;20034;-59
2023/03/13 11:18:49;;;;;;;23.42;22.17;;;;;;;;;;4990757;28;20053;-58
2023/03/13 11:21:23;;;;;;;21.98;20.77;;;;;;;;;;4991516;28;20064;-58
2023/03/13 11:24:00;;;;;;;22.02;20.83;;;;;;;;;;5011340;28;20061;-58
2023/03/13 11:26:41;;;;;;;21.92;20.73;;;;;;;;;;5009532;28;20038;-59
2023/03/13 11:29:33;;;;;;;21.58;20.38;;;;;;;;;;4998057;28;20030;-59
2023/03/13 11:32:04;;;;;;;17.80;16.80;;;;;;;;;;4995319;28;20042;-58
2023/03/13 11:34:37;;;;;;;16.50;15.50;;;;;;;;;;4993588;28;20040;-59
2023/03/13 11:37:12;;;;;;;18.15;17.15;;;;;;;;;;4990752;28;20541;-59
2023/03/13 11:40:11;;;;;;;16.38;15.48;;;;;;;;;;4994018;28;20065;-59
2023/03/13 11:43:06;;;;;;;14.60;13.80;;;;;;;;;;5009017;28;20038;-59
2023/03/13 11:45:59;;;;;;;12.88;12.13;;;;;;;;;;4990393;28;20041;-59
2023/03/13 11:48:46;;;;;;;14.52;13.73;;;;;;;;;;4992538;28;20038;-60
2023/03/13 11:51:49;;;;;;;18.00;16.98;;;;;;;;;;4994315;28;20038;-60
2023/03/13 11:54:49;;;;;;;15.90;15.00;;;;;;;;;;4988018;28;20045;-59
2023/03/13 11:57:28;;;;;;;18.33;17.33;;;;;;;;;;4999092;28;20056;-60
2023/03/13 12:00:14;;;;;;;17.23;16.27;;;;;;;;;;4998852;28;20030;-60
2023/03/13 12:02:53;;;;;;;19.58;18.48;;;;;;;;;;4998146;28;20037;-59
2023/03/13 12:05:20;;;;;;;20.25;19.15;;;;;;;;;;4999219;28;20452;-60
2023/03/13 12:08:00;;;;;;;19.25;18.20;;;;;;;;;;4993213;28;20120;-60
2023/03/13 12:10:32;;;;;;;16.60;15.60;;;;;;;;;;4994232;28;20046;-59
2023/03/13 12:13:06;;;;;;;15.20;14.30;;;;;;;;;;4999011;28;20034;-59
2023/03/13 12:15:40;;;;;;;15.80;14.90;;;;;;;;;;4997058;28;20057;-60
2023/03/13 12:18:12;;;;;;;15.18;14.32;;;;;;;;;;4997873;28;20049;-59
2023/03/13 12:20:46;;;;;;;20.67;19.58;;;;;;;;;;4997074;28;20041;-60
2023/03/13 12:23:21;;;;;;;21.17;20.05;;;;;;;;;;5000067;28;20080;-59
2023/03/13 12:25:53;;;;;;;19.15;18.05;;;;;;;;;;4997699;28;20045;-59
2023/03/13 12:28:31;;;;;;;14.25;13.45;;;;;;;;;;4994524;28;20884;-58
2023/03/13 12:31:33;;;;;;;13.27;12.48;;;;;;;;;;4998713;28;20034;-59
2023/03/13 12:34:10;;;;;;;12.93;12.15;;;;;;;;;;4997208;28;20038;-59
2023/03/13 12:36:41;;;;;;;13.40;12.50;;;;;;;;;;4996845;28;20042;-59
2023/03/13 12:39:21;;;;;;;13.00;12.23;;;;;;;;;;4995747;28;20046;-59
2023/03/13 12:42:06;;;;;;;12.95;12.15;;;;;;;;;;4999152;28;20034;-59
2023/03/13 12:44:32;;;;;;;13.90;13.10;;;;;;;;;;4997096;28;20042;-59
2023/03/13 12:47:22;;;;;;;13.52;12.73;;;;;;;;;;4993642;28;20770;-59
2023/03/13 12:49:47;;;;;;;14.75;13.95;;;;;;;;;;4993627;28;20034;-58
2023/03/13 12:52:54;;;;;;;13.32;12.52;;;;;;;;;;4999492;28;20406;-59
2023/03/13 12:55:27;;;;;;;13.07;12.25;;;;;;;;;;4972310;28;20058;-58
2023/03/13 12:58:05;;;;;;;13.43;12.63;;;;;;;;;;4989984;28;20040;-59
2023/03/13 13:00:34;;;;;;;12.77;12.02;;;;;;;;;;4993156;28;20617;-58
2023/03/13 13:03:21;;;;;;;13.65;12.85;;;;;;;;;;4993120;28;20132;-58
2023/03/13 13:06:05;;;;;;;13.10;12.38;;;;;;;;;;4995703;28;20092;-59
2023/03/13 13:08:53;;;;;;;14.15;13.35;;;;;;;;;;4993090;28;20030;-59
2023/03/13 13:11:37;;;;;;;15.13;14.23;;;;;;;;;;4995001;28;20584;-59
2023/03/13 13:14:15;;;;;;;18.02;16.67;;;;;;;;;;5014293;28;20176;-58
2023/03/13 13:16:47;;;;;;;17.73;16.73;;;;;;;;;;5010221;28;20060;-58
2023/03/13 13:19:39;;;;;;;15.88;14.98;;;;;;;;;;4993035;28;20034;-58
2023/03/13 13:22:35;;;;;;;14.80;13.95;;;;;;;;;;4993374;28;20123;-58
2023/03/13 13:25:09;;;;;;;13.93;13.13;;;;;;;;;;4994545;28;20045;-59
2023/03/13 13:27:35;;;;;;;22.67;21.30;;;;;;;;;;4997001;28;20045;-57
2023/03/13 13:30:22;;;;;;;33.45;31.73;;;;;;;;;;4996845;28;20036;-58
2023/03/13 13:33:13;;;;;;;57.17;54.28;;;;;;;;;;4990727;28;20038;-59
2023/03/13 13:35:39;;;;;;;72.05;68.47;;;;;;;;;;5001711;28;20132;-58
2023/03/13 13:38:16;;;;;;;86.28;82.00;;;;;;;;;;4995346;28;20125;-59
2023/03/13 13:40:58;;;;;;;91.68;87.15;;;;;;;;;;4996554;28;20039;-61
2023/03/13 13:43:27;;;;;;;86.93;82.60;;;;;;;;;;4993005;28;20089;-59
2023/03/13 13:46:06;;;;;;;88.40;84.03;;;;;;;;;;4995009;28;20065;-58
2023/03/13 13:48:38;;;;;;;83.72;79.57;;;;;;;;;;4995556;28;20048;-58
2023/03/13 13:51:10;;;;;;;85.55;81.32;;;;;;;;;;4999498;28;20120;-59
2023/03/13 13:53:59;;;;;;;74.60;70.90;;;;;;;;;;4995496;28;20064;-58
2023/03/13 13:56:27;;;;;;;69.10;65.57;;;;;;;;;;4995332;28;20119;-59
2023/03/13 13:59:19;;;;;;;58.13;55.22;;;;;;;;;;4994319;28;20447;-58
2023/03/13 14:01:44;;;;;;;55.47;52.65;;;;;;;;;;4988625;28;20519;-58
2023/03/13 14:04:15;;;;;;;59.20;56.20;;;;;;;;;;4995302;28;20368;-58
2023/03/13 14:06:47;;;;;;;47.40;45.00;;;;;;;;;;4992881;28;20460;-58
2023/03/13 14:09:15;;;;;;;40.55;38.47;;;;;;;;;;4994673;28;20049;-58
2023/03/13 14:11:41;;;;;;;31.92;30.23;;;;;;;;;;4993057;28;20026;-57
2023/03/13 14:14:15;;;;;;;39.35;37.33;;;;;;;;;;4995751;28;20349;-59
2023/03/13 14:16:52;;;;;;;38.78;36.78;;;;;;;;;;4993207;28;20034;-58
2023/03/13 14:19:39;;;;;;;38.25;36.30;;;;;;;;;;4990890;28;20120;-58
2023/03/13 14:22:07;;;;;;;31.92;30.23;;;;;;;;;;4999995;28;20600;-58
2023/03/13 14:24:33;;;;;;;28.42;26.95;;;;;;;;;;4996662;28;20537;-58
2023/03/13 14:26:58;;;;;;;37.22;35.30;;;;;;;;;;4993086;28;20037;-59
2023/03/13 14:29:26;;;;;;;35.78;33.92;;;;;;;;;;5001886;28;20049;-58
2023/03/13 14:31:58;;;;;;;39.35;37.35;;;;;;;;;;4995666;28;20074;-59
2023/03/13 14:34:25;;;;;;;41.53;39.38;;;;;;;;;;4992053;28;20068;-59
2023/03/13 14:36:59;;;;;;;46.75;44.40;;;;;;;;;;4991741;28;20464;-59